MMCL/CUL METAR and TAF weather

Enter ICAO airport designator
Station Type Date Time Source
MMCL METAR 2018/12/13 21:43 UTC NOAA

MMCL 132143Z 28007KT 10SM FEW250 28/13 A2995 RMK 8/004


Station Type Date Time Source
MMCL Decoded METAR 2018/12/13 21:43 UTC NOAA

Culiacan, Sin., Mexico (MMCL) 24-49N 107-24W
Dec 13, 2018 - 04:43 PM EST / 2018.12.13 2143 UTC
Wind: from the W (280 degrees) at 8 MPH (7 KT):0
Visibility: 10 mile(s):0
Sky conditions: mostly clear
Temperature: 82 F (28 C)
Dew Point: 55 F (13 C)
Relative Humidity: 39%
Pressure (altimeter): 29.95 in. Hg (1014 hPa)
ob: MMCL 132143Z 28007KT 10SM FEW250 28/13 A2995 RMK 8/004
cycle: 21

Station Type Date Time Source
MMCL TAF 2018/12/13 18:48 UTC NOAA

TAF TAF MMCL 131646Z 1318/1418 30010KT P6SM SCT250
FM140400 07015KT P6SM SCT250
FM141600 06010KT P6SM SCT250


Example: see airport list